sensor_id;sensor_type;location;lat;lon;timestamp;pressure;altitude;pressure_sealevel;temperature;humidity
69766;BME280;57039;48.014;21.384;2022-08-21T00:04:04;99905.44;;;21.44;80.03
69766;BME280;57039;48.014;21.384;2022-08-21T00:14:08;99918.63;;;21.37;82.11
69766;BME280;57039;48.014;21.384;2022-08-21T00:24:12;99900.28;;;21.42;83.35
69766;BME280;57039;48.014;21.384;2022-08-21T00:34:15;99918.09;;;21.34;85.35
69766;BME280;57039;48.014;21.384;2022-08-21T00:44:18;99922.63;;;21.33;86.85
69766;BME280;57039;48.014;21.384;2022-08-21T00:54:24;99923.09;;;21.53;86.92
69766;BME280;57039;48.014;21.384;2022-08-21T01:04:29;99914.78;;;21.40;87.31
69766;BME280;57039;48.014;21.384;2022-08-21T01:14:32;99912.63;;;21.27;87.24
69766;BME280;57039;48.014;21.384;2022-08-21T01:24:35;99922.13;;;21.13;86.71
69766;BME280;57039;48.014;21.384;2022-08-21T01:34:42;99904.44;;;20.88;87.51
69766;BME280;57039;48.014;21.384;2022-08-21T01:44:45;99897.41;;;20.54;89.20
69766;BME280;57039;48.014;21.384;2022-08-21T01:54:48;99901.59;;;20.73;88.34
69766;BME280;57039;48.014;21.384;2022-08-21T02:04:57;99883.94;;;20.56;89.41
69766;BME280;57039;48.014;21.384;2022-08-21T02:15:00;99888.72;;;20.52;89.99
69766;BME280;57039;48.014;21.384;2022-08-21T02:25:04;99891.78;;;20.15;91.17
69766;BME280;57039;48.014;21.384;2022-08-21T02:35:07;99901.09;;;20.19;90.88
69766;BME280;57039;48.014;21.384;2022-08-21T02:45:13;99900.47;;;20.17;90.43
69766;BME280;57039;48.014;21.384;2022-08-21T02:55:17;99883.00;;;20.30;89.61
69766;BME280;57039;48.014;21.384;2022-08-21T03:05:20;99887.78;;;20.19;90.23
69766;BME280;57039;48.014;21.384;2022-08-21T03:15:23;99898.31;;;20.20;90.10
69766;BME280;57039;48.014;21.384;2022-08-21T03:25:28;99896.97;;;20.24;90.00
69766;BME280;57039;48.014;21.384;2022-08-21T03:35:45;99889.28;;;20.13;90.49
69766;BME280;57039;48.014;21.384;2022-08-21T03:45:49;99903.13;;;20.17;90.21
69766;BME280;57039;48.014;21.384;2022-08-21T03:55:54;99917.78;;;20.21;90.43
69766;BME280;57039;48.014;21.384;2022-08-21T04:05:57;99919.06;;;20.09;90.75
69766;BME280;57039;48.014;21.384;2022-08-21T04:16:01;99924.47;;;20.33;90.05
69766;BME280;57039;48.014;21.384;2022-08-21T04:26:09;99917.91;;;20.54;89.14
69766;BME280;57039;48.014;21.384;2022-08-21T04:36:13;99920.09;;;20.66;88.32
69766;BME280;57039;48.014;21.384;2022-08-21T04:46:16;99934.44;;;20.90;87.82
69766;BME280;57039;48.014;21.384;2022-08-21T04:56:39;99927.13;;;21.08;87.49
69766;BME280;57039;48.014;21.384;2022-08-21T05:06:45;99957.13;;;21.35;86.48
69766;BME280;57039;48.014;21.384;2022-08-21T05:16:49;99980.47;;;21.16;88.58
69766;BME280;57039;48.014;21.384;2022-08-21T05:26:52;99973.00;;;21.36;88.67
69766;BME280;57039;48.014;21.384;2022-08-21T05:36:56;99977.50;;;21.28;89.72
69766;BME280;57039;48.014;21.384;2022-08-21T05:47:06;99969.81;;;21.41;90.30
69766;BME280;57039;48.014;21.384;2022-08-21T05:57:10;99964.16;;;21.44;91.12
69766;BME280;57039;48.014;21.384;2022-08-21T06:07:13;99966.53;;;22.11;88.71
69766;BME280;57039;48.014;21.384;2022-08-21T06:17:17;99963.69;;;22.04;88.35
69766;BME280;57039;48.014;21.384;2022-08-21T06:27:21;99956.56;;;22.44;86.05
69766;BME280;57039;48.014;21.384;2022-08-21T06:37:28;99948.25;;;22.85;83.64
69766;BME280;57039;48.014;21.384;2022-08-21T06:47:31;99956.53;;;23.07;82.25
69766;BME280;57039;48.014;21.384;2022-08-21T06:57:35;99956.78;;;23.35;79.95
69766;BME280;57039;48.014;21.384;2022-08-21T07:07:38;99942.41;;;23.65;78.13
69766;BME280;57039;48.014;21.384;2022-08-21T07:17:41;99937.91;;;23.96;77.70
69766;BME280;57039;48.014;21.384;2022-08-21T07:27:45;99936.28;;;23.95;76.32
69766;BME280;57039;48.014;21.384;2022-08-21T07:37:49;99931.19;;;24.14;75.40
69766;BME280;57039;48.014;21.384;2022-08-21T07:47:52;99934.28;;;24.48;72.96
69766;BME280;57039;48.014;21.384;2022-08-21T07:57:59;99964.00;;;25.25;68.44
69766;BME280;57039;48.014;21.384;2022-08-21T08:08:02;99953.91;;;25.13;68.66
69766;BME280;57039;48.014;21.384;2022-08-21T08:18:06;99961.69;;;25.22;66.83
69766;BME280;57039;48.014;21.384;2022-08-21T08:28:09;99951.59;;;25.53;66.67
69766;BME280;57039;48.014;21.384;2022-08-21T08:38:21;99941.72;;;24.89;68.01
69766;BME280;57039;48.014;21.384;2022-08-21T08:48:46;99950.16;;;25.28;68.61
69766;BME280;57039;48.014;21.384;2022-08-21T08:58:58;99962.50;;;24.80;70.11
69766;BME280;57039;48.014;21.384;2022-08-21T09:09:25;99955.75;;;24.48;70.61
69766;BME280;57039;48.014;21.384;2022-08-21T09:29:48;99971.41;;;24.00;73.06
69766;BME280;57039;48.014;21.384;2022-08-21T09:39:53;99985.72;;;24.07;73.25
69766;BME280;57039;48.014;21.384;2022-08-21T09:50:11;99985.41;;;23.72;78.69
69766;BME280;57039;48.014;21.384;2022-08-21T10:20:32;100009.31;;;22.50;91.20
69766;BME280;57039;48.014;21.384;2022-08-21T10:41:01;100002.81;;;22.45;94.30
69766;BME280;57039;48.014;21.384;2022-08-21T11:01:39;99998.75;;;22.57;94.09
69766;BME280;57039;48.014;21.384;2022-08-21T11:12:00;99990.34;;;22.99;92.59
69766;BME280;57039;48.014;21.384;2022-08-21T11:22:43;99979.81;;;23.21;89.65
69766;BME280;57039;48.014;21.384;2022-08-21T11:53:39;99931.06;;;24.95;79.18
69766;BME280;57039;48.014;21.384;2022-08-21T12:04:01;99920.19;;;25.25;74.34
69766;BME280;57039;48.014;21.384;2022-08-21T12:34:18;99861.38;;;26.06;72.45
69766;BME280;57039;48.014;21.384;2022-08-21T12:44:28;99850.38;;;26.01;70.28
69766;BME280;57039;48.014;21.384;2022-08-21T12:54:43;99844.69;;;26.31;68.12
69766;BME280;57039;48.014;21.384;2022-08-21T13:04:47;99837.50;;;26.58;66.96
69766;BME280;57039;48.014;21.384;2022-08-21T13:14:56;99827.38;;;26.80;64.10
69766;BME280;57039;48.014;21.384;2022-08-21T13:25:00;99825.28;;;26.95;64.43
69766;BME280;57039;48.014;21.384;2022-08-21T13:35:26;99820.25;;;26.32;65.58
69766;BME280;57039;48.014;21.384;2022-08-21T13:45:33;99822.59;;;27.28;61.09
69766;BME280;57039;48.014;21.384;2022-08-21T13:55:37;99823.53;;;27.61;58.87
69766;BME280;57039;48.014;21.384;2022-08-21T14:05:45;99835.16;;;27.61;58.53
69766;BME280;57039;48.014;21.384;2022-08-21T14:15:57;99830.69;;;27.28;57.25
69766;BME280;57039;48.014;21.384;2022-08-21T14:26:04;99825.06;;;27.37;58.48
69766;BME280;57039;48.014;21.384;2022-08-21T14:36:08;99823.97;;;27.64;56.79
69766;BME280;57039;48.014;21.384;2022-08-21T14:46:21;99819.88;;;27.35;58.57
69766;BME280;57039;48.014;21.384;2022-08-21T14:56:25;99819.06;;;27.21;59.70
69766;BME280;57039;48.014;21.384;2022-08-21T15:06:28;99816.38;;;27.08;61.12
69766;BME280;57039;48.014;21.384;2022-08-21T15:16:31;99819.50;;;26.85;60.78
69766;BME280;57039;48.014;21.384;2022-08-21T15:26:35;99813.28;;;26.64;59.99
69766;BME280;57039;48.014;21.384;2022-08-21T15:36:39;99806.88;;;26.66;59.88
69766;BME280;57039;48.014;21.384;2022-08-21T15:46:42;99788.59;;;26.28;59.95
69766;BME280;57039;48.014;21.384;2022-08-21T15:56:48;99768.03;;;25.93;61.85
69766;BME280;57039;48.014;21.384;2022-08-21T16:06:53;99767.59;;;25.83;64.28
69766;BME280;57039;48.014;21.384;2022-08-21T16:17:04;99772.13;;;25.76;64.94
69766;BME280;57039;48.014;21.384;2022-08-21T16:27:08;99775.34;;;25.58;65.55
69766;BME280;57039;48.014;21.384;2022-08-21T16:37:15;99769.69;;;25.40;65.13
69766;BME280;57039;48.014;21.384;2022-08-21T16:47:26;99784.69;;;25.27;65.69
69766;BME280;57039;48.014;21.384;2022-08-21T16:57:29;99776.28;;;25.09;66.74
69766;BME280;57039;48.014;21.384;2022-08-21T17:07:33;99779.53;;;24.98;67.97
69766;BME280;57039;48.014;21.384;2022-08-21T17:17:39;99781.38;;;24.97;67.97
69766;BME280;57039;48.014;21.384;2022-08-21T17:27:43;99790.16;;;24.85;70.46
69766;BME280;57039;48.014;21.384;2022-08-21T17:37:47;99778.44;;;24.64;72.13
69766;BME280;57039;48.014;21.384;2022-08-21T17:47:51;99787.78;;;24.47;72.75
69766;BME280;57039;48.014;21.384;2022-08-21T17:57:55;99794.19;;;24.31;73.43
69766;BME280;57039;48.014;21.384;2022-08-21T18:07:58;99804.44;;;24.21;74.12
69766;BME280;57039;48.014;21.384;2022-08-21T18:18:02;99800.38;;;24.10;74.39
69766;BME280;57039;48.014;21.384;2022-08-21T18:28:07;99799.66;;;24.01;74.43
69766;BME280;57039;48.014;21.384;2022-08-21T18:38:10;99796.03;;;23.87;74.52
69766;BME280;57039;48.014;21.384;2022-08-21T18:48:34;99783.03;;;23.69;74.98
69766;BME280;57039;48.014;21.384;2022-08-21T18:58:37;99773.97;;;23.71;73.94
69766;BME280;57039;48.014;21.384;2022-08-21T19:08:41;99775.97;;;23.83;74.93
69766;BME280;57039;48.014;21.384;2022-08-21T19:18:44;99784.22;;;23.82;74.14
69766;BME280;57039;48.014;21.384;2022-08-21T19:28:50;99772.19;;;23.63;75.32
69766;BME280;57039;48.014;21.384;2022-08-21T19:38:55;99787.94;;;23.21;83.46
69766;BME280;57039;48.014;21.384;2022-08-21T19:49:00;99779.53;;;22.95;89.80
69766;BME280;57039;48.014;21.384;2022-08-21T19:59:04;99785.50;;;22.97;88.97
69766;BME280;57039;48.014;21.384;2022-08-21T20:09:11;99772.81;;;22.07;96.71
69766;BME280;57039;48.014;21.384;2022-08-21T20:19:14;99756.47;;;21.79;98.27
69766;BME280;57039;48.014;21.384;2022-08-21T20:29:20;99749.37;;;21.63;100.00
69766;BME280;57039;48.014;21.384;2022-08-21T20:39:43;99766.97;;;21.49;100.00
69766;BME280;57039;48.014;21.384;2022-08-21T20:49:52;99761.16;;;21.77;100.00
69766;BME280;57039;48.014;21.384;2022-08-21T21:00:06;99762.94;;;21.53;100.00
69766;BME280;57039;48.014;21.384;2022-08-21T21:20:57;99792.22;;;21.14;100.00
69766;BME280;57039;48.014;21.384;2022-08-21T21:31:01;99795.06;;;21.12;100.00
69766;BME280;57039;48.014;21.384;2022-08-21T21:41:34;99803.56;;;21.24;100.00
69766;BME280;57039;48.014;21.384;2022-08-21T22:13:21;99791.88;;;21.25;100.00
69766;BME280;57039;48.014;21.384;2022-08-21T22:23:49;99789.06;;;21.18;100.00
69766;BME280;57039;48.014;21.384;2022-08-21T22:44:06;99794.56;;;21.09;100.00
69766;BME280;57039;48.014;21.384;2022-08-21T22:54:34;99793.44;;;21.03;100.00
69766;BME280;57039;48.014;21.384;2022-08-21T23:04:46;99786.94;;;20.97;100.00
69766;BME280;57039;48.014;21.384;2022-08-21T23:15:11;99788.28;;;20.85;100.00
69766;BME280;57039;48.014;21.384;2022-08-21T23:35:53;99790.09;;;20.85;100.00
69766;BME280;57039;48.014;21.384;2022-08-21T23:57:06;99800.44;;;20.96;100.00
